sensor_id;sensor_type;location;lat;lon;timestamp;P1;durP1;ratioP1;P2;durP2;ratioP2
22634;SDS011;11484;50.858;4.384;2023-11-22T00:00:12;27.58;;;16.60;;
22634;SDS011;11484;50.858;4.384;2023-11-22T00:02:39;29.15;;;16.35;;
22634;SDS011;11484;50.858;4.384;2023-11-22T00:05:05;28.33;;;16.33;;
22634;SDS011;11484;50.858;4.384;2023-11-22T00:07:34;26.25;;;16.02;;
22634;SDS011;11484;50.858;4.384;2023-11-22T00:09:59;29.83;;;16.98;;
22634;SDS011;11484;50.858;4.384;2023-11-22T00:12:26;27.45;;;16.70;;
22634;SDS011;11484;50.858;4.384;2023-11-22T00:14:53;28.48;;;16.67;;
22634;SDS011;11484;50.858;4.384;2023-11-22T00:17:19;29.17;;;16.45;;
22634;SDS011;11484;50.858;4.384;2023-11-22T00:19:44;27.55;;;16.77;;
22634;SDS011;11484;50.858;4.384;2023-11-22T00:22:10;28.05;;;16.73;;
22634;SDS011;11484;50.858;4.384;2023-11-22T00:24:41;27.52;;;16.40;;
22634;SDS011;11484;50.858;4.384;2023-11-22T00:27:07;26.02;;;16.60;;
22634;SDS011;11484;50.858;4.384;2023-11-22T00:29:33;28.80;;;17.02;;
22634;SDS011;11484;50.858;4.384;2023-11-22T00:31:59;27.50;;;16.67;;
22634;SDS011;11484;50.858;4.384;2023-11-22T00:34:25;27.23;;;16.35;;
22634;SDS011;11484;50.858;4.384;2023-11-22T00:36:51;28.98;;;15.98;;
22634;SDS011;11484;50.858;4.384;2023-11-22T00:39:17;28.42;;;16.42;;
22634;SDS011;11484;50.858;4.384;2023-11-22T00:41:43;29.85;;;17.10;;
22634;SDS011;11484;50.858;4.384;2023-11-22T00:44:09;27.00;;;16.23;;
22634;SDS011;11484;50.858;4.384;2023-11-22T00:46:35;29.83;;;17.30;;
22634;SDS011;11484;50.858;4.384;2023-11-22T00:49:04;28.20;;;16.60;;
22634;SDS011;11484;50.858;4.384;2023-11-22T00:51:31;28.42;;;16.73;;
22634;SDS011;11484;50.858;4.384;2023-11-22T00:54:00;28.38;;;16.88;;
22634;SDS011;11484;50.858;4.384;2023-11-22T00:56:26;24.98;;;15.80;;
22634;SDS011;11484;50.858;4.384;2023-11-22T00:58:52;28.25;;;16.73;;
22634;SDS011;11484;50.858;4.384;2023-11-22T01:01:20;26.38;;;16.17;;
22634;SDS011;11484;50.858;4.384;2023-11-22T01:03:46;27.55;;;16.52;;
22634;SDS011;11484;50.858;4.384;2023-11-22T01:06:12;29.75;;;16.38;;
22634;SDS011;11484;50.858;4.384;2023-11-22T01:08:38;25.52;;;16.02;;
22634;SDS011;11484;50.858;4.384;2023-11-22T01:11:04;28.85;;;16.38;;
22634;SDS011;11484;50.858;4.384;2023-11-22T01:13:30;26.55;;;15.95;;
22634;SDS011;11484;50.858;4.384;2023-11-22T01:15:57;29.98;;;16.38;;
22634;SDS011;11484;50.858;4.384;2023-11-22T01:18:23;31.42;;;18.10;;
22634;SDS011;11484;50.858;4.384;2023-11-22T01:20:49;27.88;;;17.20;;
22634;SDS011;11484;50.858;4.384;2023-11-22T01:23:15;25.80;;;15.88;;
22634;SDS011;11484;50.858;4.384;2023-11-22T01:25:40;30.40;;;16.98;;
22634;SDS011;11484;50.858;4.384;2023-11-22T01:28:06;27.55;;;16.10;;
22634;SDS011;11484;50.858;4.384;2023-11-22T01:30:32;29.45;;;17.45;;
22634;SDS011;11484;50.858;4.384;2023-11-22T01:32:58;24.52;;;15.23;;
22634;SDS011;11484;50.858;4.384;2023-11-22T01:35:24;29.60;;;17.27;;
22634;SDS011;11484;50.858;4.384;2023-11-22T01:37:50;29.80;;;17.08;;
22634;SDS011;11484;50.858;4.384;2023-11-22T01:40:16;29.88;;;16.55;;
22634;SDS011;11484;50.858;4.384;2023-11-22T01:42:41;29.17;;;17.05;;
22634;SDS011;11484;50.858;4.384;2023-11-22T01:45:07;29.48;;;17.05;;
22634;SDS011;11484;50.858;4.384;2023-11-22T01:47:35;28.10;;;16.33;;
22634;SDS011;11484;50.858;4.384;2023-11-22T01:50:03;28.92;;;16.67;;
22634;SDS011;11484;50.858;4.384;2023-11-22T01:52:31;26.88;;;16.50;;
22634;SDS011;11484;50.858;4.384;2023-11-22T01:54:57;28.73;;;17.13;;
22634;SDS011;11484;50.858;4.384;2023-11-22T01:57:23;29.25;;;16.88;;
22634;SDS011;11484;50.858;4.384;2023-11-22T01:59:49;29.83;;;17.10;;
22634;SDS011;11484;50.858;4.384;2023-11-22T02:02:15;29.55;;;17.00;;
22634;SDS011;11484;50.858;4.384;2023-11-22T02:04:41;28.38;;;16.63;;
22634;SDS011;11484;50.858;4.384;2023-11-22T02:07:06;31.00;;;17.30;;
22634;SDS011;11484;50.858;4.384;2023-11-22T02:09:32;26.17;;;16.52;;
22634;SDS011;11484;50.858;4.384;2023-11-22T02:11:58;29.67;;;16.15;;
22634;SDS011;11484;50.858;4.384;2023-11-22T02:14:24;26.73;;;16.38;;
22634;SDS011;11484;50.858;4.384;2023-11-22T02:16:49;30.45;;;16.75;;
22634;SDS011;11484;50.858;4.384;2023-11-22T02:19:16;29.15;;;16.48;;
22634;SDS011;11484;50.858;4.384;2023-11-22T02:21:42;26.55;;;16.48;;
22634;SDS011;11484;50.858;4.384;2023-11-22T02:24:09;29.38;;;16.73;;
22634;SDS011;11484;50.858;4.384;2023-11-22T02:26:35;31.75;;;18.00;;
22634;SDS011;11484;50.858;4.384;2023-11-22T02:29:01;34.88;;;18.60;;
22634;SDS011;11484;50.858;4.384;2023-11-22T02:31:29;31.60;;;17.80;;
22634;SDS011;11484;50.858;4.384;2023-11-22T02:33:55;34.15;;;19.17;;
22634;SDS011;11484;50.858;4.384;2023-11-22T02:36:24;32.67;;;18.88;;
22634;SDS011;11484;50.858;4.384;2023-11-22T02:38:51;32.30;;;18.75;;
22634;SDS011;11484;50.858;4.384;2023-11-22T02:41:17;36.35;;;19.80;;
22634;SDS011;11484;50.858;4.384;2023-11-22T02:43:43;31.85;;;18.85;;
22634;SDS011;11484;50.858;4.384;2023-11-22T02:46:09;34.30;;;19.38;;
22634;SDS011;11484;50.858;4.384;2023-11-22T02:48:35;34.67;;;19.27;;
22634;SDS011;11484;50.858;4.384;2023-11-22T02:51:01;32.60;;;19.10;;
22634;SDS011;11484;50.858;4.384;2023-11-22T02:53:26;32.42;;;18.88;;
22634;SDS011;11484;50.858;4.384;2023-11-22T02:55:52;32.83;;;18.98;;
22634;SDS011;11484;50.858;4.384;2023-11-22T02:58:21;34.67;;;19.42;;
22634;SDS011;11484;50.858;4.384;2023-11-22T03:00:47;34.22;;;20.17;;
22634;SDS011;11484;50.858;4.384;2023-11-22T03:03:13;31.83;;;18.13;;
22634;SDS011;11484;50.858;4.384;2023-11-22T03:05:39;36.05;;;19.88;;
22634;SDS011;11484;50.858;4.384;2023-11-22T03:08:05;37.15;;;19.80;;
22634;SDS011;11484;50.858;4.384;2023-11-22T03:10:32;33.60;;;19.38;;
22634;SDS011;11484;50.858;4.384;2023-11-22T03:12:58;32.67;;;18.35;;
22634;SDS011;11484;50.858;4.384;2023-11-22T03:15:24;35.50;;;19.50;;
22634;SDS011;11484;50.858;4.384;2023-11-22T03:17:50;32.85;;;19.55;;
22634;SDS011;11484;50.858;4.384;2023-11-22T03:20:16;33.67;;;18.80;;
22634;SDS011;11484;50.858;4.384;2023-11-22T03:22:42;34.65;;;20.23;;
22634;SDS011;11484;50.858;4.384;2023-11-22T03:25:11;35.38;;;18.75;;
22634;SDS011;11484;50.858;4.384;2023-11-22T03:27:37;33.88;;;18.83;;
22634;SDS011;11484;50.858;4.384;2023-11-22T03:30:03;34.72;;;19.35;;
22634;SDS011;11484;50.858;4.384;2023-11-22T03:32:30;34.92;;;19.33;;
22634;SDS011;11484;50.858;4.384;2023-11-22T03:34:55;32.63;;;18.95;;
22634;SDS011;11484;50.858;4.384;2023-11-22T03:37:22;34.55;;;19.40;;
22634;SDS011;11484;50.858;4.384;2023-11-22T03:39:49;33.15;;;18.95;;
22634;SDS011;11484;50.858;4.384;2023-11-22T03:42:15;32.03;;;18.92;;
22634;SDS011;11484;50.858;4.384;2023-11-22T03:44:43;32.70;;;19.13;;
22634;SDS011;11484;50.858;4.384;2023-11-22T03:47:09;30.30;;;18.27;;
22634;SDS011;11484;50.858;4.384;2023-11-22T03:49:36;30.20;;;18.00;;
22634;SDS011;11484;50.858;4.384;2023-11-22T03:52:02;33.33;;;18.70;;
22634;SDS011;11484;50.858;4.384;2023-11-22T03:54:28;31.77;;;18.35;;
22634;SDS011;11484;50.858;4.384;2023-11-22T03:56:54;29.98;;;17.75;;
22634;SDS011;11484;50.858;4.384;2023-11-22T03:59:19;31.33;;;17.83;;
22634;SDS011;11484;50.858;4.384;2023-11-22T04:01:45;31.23;;;17.70;;
22634;SDS011;11484;50.858;4.384;2023-11-22T04:04:11;32.55;;;17.58;;
22634;SDS011;11484;50.858;4.384;2023-11-22T04:06:36;33.83;;;18.13;;
22634;SDS011;11484;50.858;4.384;2023-11-22T04:09:02;34.88;;;18.95;;
22634;SDS011;11484;50.858;4.384;2023-11-22T04:11:28;33.38;;;18.95;;
22634;SDS011;11484;50.858;4.384;2023-11-22T04:13:54;32.17;;;17.85;;
22634;SDS011;11484;50.858;4.384;2023-11-22T04:16:21;29.52;;;18.23;;
22634;SDS011;11484;50.858;4.384;2023-11-22T04:18:46;32.13;;;18.08;;
22634;SDS011;11484;50.858;4.384;2023-11-22T04:21:12;33.00;;;18.38;;
22634;SDS011;11484;50.858;4.384;2023-11-22T04:23:38;31.42;;;17.67;;
22634;SDS011;11484;50.858;4.384;2023-11-22T04:26:04;34.22;;;19.02;;
22634;SDS011;11484;50.858;4.384;2023-11-22T04:28:32;33.95;;;18.95;;
22634;SDS011;11484;50.858;4.384;2023-11-22T04:30:57;32.40;;;18.55;;
22634;SDS011;11484;50.858;4.384;2023-11-22T04:33:24;33.80;;;19.40;;
22634;SDS011;11484;50.858;4.384;2023-11-22T04:35:50;31.02;;;17.48;;
22634;SDS011;11484;50.858;4.384;2023-11-22T04:38:16;33.42;;;18.98;;
22634;SDS011;11484;50.858;4.384;2023-11-22T04:40:42;32.80;;;18.42;;
22634;SDS011;11484;50.858;4.384;2023-11-22T04:43:09;34.70;;;18.25;;
22634;SDS011;11484;50.858;4.384;2023-11-22T04:45:34;34.03;;;18.13;;
22634;SDS011;11484;50.858;4.384;2023-11-22T04:48:00;32.97;;;18.00;;
22634;SDS011;11484;50.858;4.384;2023-11-22T04:50:26;33.10;;;18.73;;
22634;SDS011;11484;50.858;4.384;2023-11-22T04:52:52;34.05;;;19.30;;
22634;SDS011;11484;50.858;4.384;2023-11-22T04:55:18;36.00;;;19.33;;
22634;SDS011;11484;50.858;4.384;2023-11-22T04:57:45;39.42;;;19.90;;
22634;SDS011;11484;50.858;4.384;2023-11-22T05:00:11;36.13;;;18.88;;
22634;SDS011;11484;50.858;4.384;2023-11-22T05:02:37;36.78;;;19.75;;
22634;SDS011;11484;50.858;4.384;2023-11-22T05:05:04;32.47;;;18.30;;
22634;SDS011;11484;50.858;4.384;2023-11-22T05:07:31;36.85;;;20.02;;
22634;SDS011;11484;50.858;4.384;2023-11-22T05:09:57;39.92;;;20.42;;
22634;SDS011;11484;50.858;4.384;2023-11-22T05:12:22;35.92;;;19.38;;
22634;SDS011;11484;50.858;4.384;2023-11-22T05:14:48;37.30;;;19.55;;
22634;SDS011;11484;50.858;4.384;2023-11-22T05:17:14;33.05;;;18.65;;
22634;SDS011;11484;50.858;4.384;2023-11-22T05:19:39;36.70;;;19.55;;
22634;SDS011;11484;50.858;4.384;2023-11-22T05:22:05;36.85;;;21.17;;
22634;SDS011;11484;50.858;4.384;2023-11-22T05:24:32;35.65;;;19.52;;
22634;SDS011;11484;50.858;4.384;2023-11-22T05:27:00;33.72;;;18.88;;
22634;SDS011;11484;50.858;4.384;2023-11-22T05:29:26;34.65;;;19.15;;
22634;SDS011;11484;50.858;4.384;2023-11-22T05:31:52;35.38;;;18.90;;
22634;SDS011;11484;50.858;4.384;2023-11-22T05:34:18;36.42;;;19.63;;
22634;SDS011;11484;50.858;4.384;2023-11-22T05:36:43;36.42;;;20.23;;
22634;SDS011;11484;50.858;4.384;2023-11-22T05:39:10;34.60;;;18.83;;
22634;SDS011;11484;50.858;4.384;2023-11-22T05:41:37;38.17;;;19.58;;
22634;SDS011;11484;50.858;4.384;2023-11-22T05:44:03;37.63;;;20.27;;
22634;SDS011;11484;50.858;4.384;2023-11-22T05:46:29;36.83;;;20.05;;
22634;SDS011;11484;50.858;4.384;2023-11-22T05:48:55;34.40;;;19.88;;
22634;SDS011;11484;50.858;4.384;2023-11-22T05:51:20;39.22;;;20.58;;
22634;SDS011;11484;50.858;4.384;2023-11-22T05:53:46;36.00;;;19.90;;
22634;SDS011;11484;50.858;4.384;2023-11-22T05:56:12;34.35;;;18.80;;
22634;SDS011;11484;50.858;4.384;2023-11-22T05:58:38;37.88;;;20.75;;
22634;SDS011;11484;50.858;4.384;2023-11-22T06:01:04;33.90;;;19.13;;
22634;SDS011;11484;50.858;4.384;2023-11-22T06:03:31;33.90;;;19.23;;
22634;SDS011;11484;50.858;4.384;2023-11-22T06:05:57;32.88;;;18.42;;
22634;SDS011;11484;50.858;4.384;2023-11-22T06:08:23;33.72;;;19.17;;
22634;SDS011;11484;50.858;4.384;2023-11-22T06:10:49;33.95;;;19.13;;
22634;SDS011;11484;50.858;4.384;2023-11-22T06:13:15;32.63;;;18.35;;
22634;SDS011;11484;50.858;4.384;2023-11-22T06:15:44;31.35;;;17.90;;
22634;SDS011;11484;50.858;4.384;2023-11-22T06:18:10;36.00;;;19.27;;
22634;SDS011;11484;50.858;4.384;2023-11-22T06:20:38;35.80;;;18.77;;
22634;SDS011;11484;50.858;4.384;2023-11-22T06:23:04;36.63;;;21.05;;
22634;SDS011;11484;50.858;4.384;2023-11-22T06:25:30;34.40;;;19.10;;
22634;SDS011;11484;50.858;4.384;2023-11-22T06:27:56;34.40;;;18.58;;
22634;SDS011;11484;50.858;4.384;2023-11-22T06:30:22;37.03;;;19.63;;
22634;SDS011;11484;50.858;4.384;2023-11-22T06:32:50;35.08;;;20.05;;
22634;SDS011;11484;50.858;4.384;2023-11-22T06:35:16;38.15;;;19.80;;
22634;SDS011;11484;50.858;4.384;2023-11-22T06:37:42;35.55;;;19.40;;
22634;SDS011;11484;50.858;4.384;2023-11-22T06:40:09;38.58;;;19.42;;
22634;SDS011;11484;50.858;4.384;2023-11-22T06:42:37;39.60;;;20.33;;
22634;SDS011;11484;50.858;4.384;2023-11-22T06:45:04;38.13;;;20.25;;
22634;SDS011;11484;50.858;4.384;2023-11-22T06:47:35;39.17;;;19.92;;
22634;SDS011;11484;50.858;4.384;2023-11-22T06:50:01;40.38;;;20.35;;
22634;SDS011;11484;50.858;4.384;2023-11-22T06:52:29;38.67;;;20.40;;
22634;SDS011;11484;50.858;4.384;2023-11-22T06:54:55;34.42;;;18.70;;
22634;SDS011;11484;50.858;4.384;2023-11-22T06:57:20;36.25;;;19.38;;
22634;SDS011;11484;50.858;4.384;2023-11-22T06:59:53;39.10;;;19.73;;
22634;SDS011;11484;50.858;4.384;2023-11-22T07:02:19;38.97;;;20.75;;
22634;SDS011;11484;50.858;4.384;2023-11-22T07:04:45;37.78;;;19.15;;
22634;SDS011;11484;50.858;4.384;2023-11-22T07:07:10;37.15;;;20.13;;
22634;SDS011;11484;50.858;4.384;2023-11-22T07:09:36;38.05;;;19.90;;
22634;SDS011;11484;50.858;4.384;2023-11-22T07:12:02;40.75;;;20.25;;
22634;SDS011;11484;50.858;4.384;2023-11-22T07:14:31;36.92;;;20.23;;
22634;SDS011;11484;50.858;4.384;2023-11-22T07:16:57;38.55;;;19.58;;
22634;SDS011;11484;50.858;4.384;2023-11-22T07:19:23;36.33;;;19.00;;
22634;SDS011;11484;50.858;4.384;2023-11-22T07:21:48;35.88;;;18.98;;
22634;SDS011;11484;50.858;4.384;2023-11-22T07:24:14;38.47;;;20.13;;
22634;SDS011;11484;50.858;4.384;2023-11-22T07:26:41;36.38;;;20.00;;
22634;SDS011;11484;50.858;4.384;2023-11-22T07:29:10;35.95;;;20.52;;
22634;SDS011;11484;50.858;4.384;2023-11-22T07:31:37;35.75;;;20.73;;
22634;SDS011;11484;50.858;4.384;2023-11-22T07:34:04;36.92;;;20.05;;
22634;SDS011;11484;50.858;4.384;2023-11-22T07:36:31;35.30;;;19.00;;
22634;SDS011;11484;50.858;4.384;2023-11-22T07:38:56;34.60;;;19.58;;
22634;SDS011;11484;50.858;4.384;2023-11-22T07:41:22;33.03;;;19.58;;
22634;SDS011;11484;50.858;4.384;2023-11-22T07:43:48;34.22;;;19.27;;
22634;SDS011;11484;50.858;4.384;2023-11-22T07:46:14;32.47;;;18.85;;
22634;SDS011;11484;50.858;4.384;2023-11-22T07:48:42;35.67;;;20.00;;
22634;SDS011;11484;50.858;4.384;2023-11-22T07:51:08;35.78;;;18.92;;
22634;SDS011;11484;50.858;4.384;2023-11-22T07:53:34;34.28;;;19.60;;
22634;SDS011;11484;50.858;4.384;2023-11-22T07:56:00;36.72;;;19.70;;
22634;SDS011;11484;50.858;4.384;2023-11-22T07:58:32;33.58;;;19.35;;
22634;SDS011;11484;50.858;4.384;2023-11-22T08:00:58;34.67;;;18.88;;
22634;SDS011;11484;50.858;4.384;2023-11-22T08:03:24;39.70;;;19.15;;
22634;SDS011;11484;50.858;4.384;2023-11-22T08:05:54;31.15;;;18.17;;
22634;SDS011;11484;50.858;4.384;2023-11-22T08:08:21;33.03;;;18.60;;
22634;SDS011;11484;50.858;4.384;2023-11-22T08:10:47;31.60;;;18.20;;
22634;SDS011;11484;50.858;4.384;2023-11-22T08:13:14;30.50;;;17.00;;
22634;SDS011;11484;50.858;4.384;2023-11-22T08:15:41;31.65;;;18.33;;
22634;SDS011;11484;50.858;4.384;2023-11-22T08:18:07;31.38;;;18.35;;
22634;SDS011;11484;50.858;4.384;2023-11-22T08:20:32;36.47;;;19.88;;
22634;SDS011;11484;50.858;4.384;2023-11-22T08:22:58;40.40;;;18.52;;
22634;SDS011;11484;50.858;4.384;2023-11-22T08:25:24;37.88;;;19.77;;
22634;SDS011;11484;50.858;4.384;2023-11-22T08:27:50;38.58;;;18.88;;
22634;SDS011;11484;50.858;4.384;2023-11-22T08:30:15;43.67;;;20.25;;
22634;SDS011;11484;50.858;4.384;2023-11-22T08:32:42;36.40;;;19.10;;
22634;SDS011;11484;50.858;4.384;2023-11-22T08:35:09;35.45;;;18.83;;
22634;SDS011;11484;50.858;4.384;2023-11-22T08:37:35;35.95;;;18.73;;
22634;SDS011;11484;50.858;4.384;2023-11-22T08:40:03;38.15;;;21.15;;
22634;SDS011;11484;50.858;4.384;2023-11-22T08:42:33;36.42;;;19.60;;
22634;SDS011;11484;50.858;4.384;2023-11-22T08:45:00;33.22;;;18.45;;
22634;SDS011;11484;50.858;4.384;2023-11-22T08:47:28;32.95;;;18.42;;
22634;SDS011;11484;50.858;4.384;2023-11-22T08:49:54;35.45;;;18.77;;
22634;SDS011;11484;50.858;4.384;2023-11-22T08:52:20;31.92;;;18.67;;
22634;SDS011;11484;50.858;4.384;2023-11-22T08:54:45;35.05;;;19.95;;
22634;SDS011;11484;50.858;4.384;2023-11-22T08:57:11;31.77;;;18.70;;
22634;SDS011;11484;50.858;4.384;2023-11-22T08:59:37;31.52;;;17.55;;
22634;SDS011;11484;50.858;4.384;2023-11-22T09:02:03;32.92;;;18.40;;
22634;SDS011;11484;50.858;4.384;2023-11-22T09:04:30;35.55;;;18.90;;
22634;SDS011;11484;50.858;4.384;2023-11-22T09:06:57;31.35;;;18.25;;
22634;SDS011;11484;50.858;4.384;2023-11-22T09:09:23;31.67;;;18.90;;
22634;SDS011;11484;50.858;4.384;2023-11-22T09:11:56;34.08;;;18.83;;
22634;SDS011;11484;50.858;4.384;2023-11-22T09:14:22;37.83;;;18.27;;
22634;SDS011;11484;50.858;4.384;2023-11-22T09:16:50;35.58;;;18.85;;
22634;SDS011;11484;50.858;4.384;2023-11-22T09:19:20;31.53;;;18.13;;
22634;SDS011;11484;50.858;4.384;2023-11-22T09:24:15;34.35;;;18.48;;
22634;SDS011;11484;50.858;4.384;2023-11-22T09:26:42;32.95;;;18.33;;
22634;SDS011;11484;50.858;4.384;2023-11-22T09:29:09;32.75;;;19.35;;
22634;SDS011;11484;50.858;4.384;2023-11-22T09:31:38;30.83;;;17.42;;
22634;SDS011;11484;50.858;4.384;2023-11-22T09:34:04;32.85;;;18.02;;
22634;SDS011;11484;50.858;4.384;2023-11-22T09:36:30;32.42;;;18.67;;
22634;SDS011;11484;50.858;4.384;2023-11-22T09:38:59;31.20;;;18.23;;
22634;SDS011;11484;50.858;4.384;2023-11-22T09:41:25;30.08;;;17.50;;
22634;SDS011;11484;50.858;4.384;2023-11-22T09:43:52;29.65;;;18.08;;
22634;SDS011;11484;50.858;4.384;2023-11-22T09:46:18;28.30;;;18.10;;
22634;SDS011;11484;50.858;4.384;2023-11-22T09:48:47;34.70;;;20.48;;
22634;SDS011;11484;50.858;4.384;2023-11-22T09:51:23;29.02;;;17.52;;
22634;SDS011;11484;50.858;4.384;2023-11-22T09:56:19;32.33;;;18.90;;
22634;SDS011;11484;50.858;4.384;2023-11-22T09:58:45;31.00;;;19.33;;
22634;SDS011;11484;50.858;4.384;2023-11-22T10:01:16;31.10;;;18.70;;
22634;SDS011;11484;50.858;4.384;2023-11-22T10:03:42;34.75;;;19.40;;
22634;SDS011;11484;50.858;4.384;2023-11-22T10:06:09;33.65;;;19.13;;
22634;SDS011;11484;50.858;4.384;2023-11-22T10:08:35;40.80;;;20.20;;
22634;SDS011;11484;50.858;4.384;2023-11-22T10:11:02;40.75;;;20.77;;
22634;SDS011;11484;50.858;4.384;2023-11-22T10:13:29;47.50;;;21.15;;
22634;SDS011;11484;50.858;4.384;2023-11-22T10:15:55;55.85;;;22.17;;
22634;SDS011;11484;50.858;4.384;2023-11-22T10:18:20;37.95;;;21.15;;
22634;SDS011;11484;50.858;4.384;2023-11-22T10:20:48;33.85;;;20.20;;
22634;SDS011;11484;50.858;4.384;2023-11-22T10:23:17;37.70;;;21.85;;
22634;SDS011;11484;50.858;4.384;2023-11-22T10:25:48;36.03;;;21.27;;
22634;SDS011;11484;50.858;4.384;2023-11-22T10:28:22;37.00;;;20.25;;
22634;SDS011;11484;50.858;4.384;2023-11-22T10:30:50;37.42;;;21.27;;
22634;SDS011;11484;50.858;4.384;2023-11-22T10:33:17;32.92;;;19.92;;
22634;SDS011;11484;50.858;4.384;2023-11-22T10:35:49;36.35;;;20.75;;
22634;SDS011;11484;50.858;4.384;2023-11-22T10:38:18;33.00;;;20.50;;
22634;SDS011;11484;50.858;4.384;2023-11-22T10:40:45;33.88;;;20.45;;
22634;SDS011;11484;50.858;4.384;2023-11-22T10:43:11;32.85;;;20.25;;
22634;SDS011;11484;50.858;4.384;2023-11-22T10:45:38;36.47;;;21.73;;
22634;SDS011;11484;50.858;4.384;2023-11-22T10:48:04;33.40;;;20.65;;
22634;SDS011;11484;50.858;4.384;2023-11-22T10:50:31;38.08;;;21.42;;
22634;SDS011;11484;50.858;4.384;2023-11-22T10:52:57;35.33;;;21.27;;
22634;SDS011;11484;50.858;4.384;2023-11-22T10:55:29;38.83;;;21.95;;
22634;SDS011;11484;50.858;4.384;2023-11-22T10:58:03;39.17;;;21.73;;
22634;SDS011;11484;50.858;4.384;2023-11-22T11:00:34;42.25;;;22.95;;
22634;SDS011;11484;50.858;4.384;2023-11-22T11:05:32;38.88;;;21.30;;
22634;SDS011;11484;50.858;4.384;2023-11-22T11:08:01;33.58;;;21.15;;
22634;SDS011;11484;50.858;4.384;2023-11-22T11:10:40;32.08;;;19.83;;
22634;SDS011;11484;50.858;4.384;2023-11-22T11:13:09;32.72;;;19.23;;
22634;SDS011;11484;50.858;4.384;2023-11-22T11:15:36;34.88;;;21.23;;
22634;SDS011;11484;50.858;4.384;2023-11-22T11:18:03;36.28;;;20.08;;
22634;SDS011;11484;50.858;4.384;2023-11-22T11:20:51;32.00;;;20.00;;
22634;SDS011;11484;50.858;4.384;2023-11-22T11:23:22;30.45;;;18.52;;
22634;SDS011;11484;50.858;4.384;2023-11-22T11:25:57;29.05;;;18.27;;
22634;SDS011;11484;50.858;4.384;2023-11-22T11:28:25;27.83;;;17.55;;
22634;SDS011;11484;50.858;4.384;2023-11-22T11:30:51;28.95;;;17.25;;
22634;SDS011;11484;50.858;4.384;2023-11-22T11:33:19;29.10;;;17.67;;
22634;SDS011;11484;50.858;4.384;2023-11-22T11:39:07;26.88;;;15.43;;
22634;SDS011;11484;50.858;4.384;2023-11-22T11:41:40;25.40;;;16.95;;
22634;SDS011;11484;50.858;4.384;2023-11-22T11:44:09;29.83;;;16.83;;
22634;SDS011;11484;50.858;4.384;2023-11-22T11:46:37;23.60;;;15.90;;
22634;SDS011;11484;50.858;4.384;2023-11-22T11:49:05;29.98;;;16.17;;
22634;SDS011;11484;50.858;4.384;2023-11-22T11:51:35;26.80;;;14.70;;
22634;SDS011;11484;50.858;4.384;2023-11-22T11:54:03;22.27;;;14.18;;
22634;SDS011;11484;50.858;4.384;2023-11-22T11:56:29;23.05;;;14.55;;
22634;SDS011;11484;50.858;4.384;2023-11-22T11:58:57;24.63;;;14.57;;
22634;SDS011;11484;50.858;4.384;2023-11-22T12:01:27;22.05;;;14.27;;
22634;SDS011;11484;50.858;4.384;2023-11-22T12:03:57;24.30;;;14.45;;
22634;SDS011;11484;50.858;4.384;2023-11-22T12:06:25;23.80;;;14.70;;
22634;SDS011;11484;50.858;4.384;2023-11-22T12:08:51;23.55;;;14.38;;
22634;SDS011;11484;50.858;4.384;2023-11-22T12:11:18;21.25;;;14.25;;
22634;SDS011;11484;50.858;4.384;2023-11-22T12:13:44;24.40;;;15.52;;
22634;SDS011;11484;50.858;4.384;2023-11-22T12:16:15;20.27;;;13.50;;
22634;SDS011;11484;50.858;4.384;2023-11-22T12:18:44;21.70;;;14.13;;
22634;SDS011;11484;50.858;4.384;2023-11-22T12:21:14;24.40;;;16.75;;
22634;SDS011;11484;50.858;4.384;2023-11-22T12:23:41;23.40;;;15.00;;
22634;SDS011;11484;50.858;4.384;2023-11-22T12:26:11;20.67;;;14.27;;
22634;SDS011;11484;50.858;4.384;2023-11-22T12:28:41;24.38;;;14.35;;
22634;SDS011;11484;50.858;4.384;2023-11-22T12:31:15;21.08;;;12.95;;
22634;SDS011;11484;50.858;4.384;2023-11-22T12:33:41;25.85;;;14.35;;
22634;SDS011;11484;50.858;4.384;2023-11-22T12:36:08;21.65;;;14.02;;
22634;SDS011;11484;50.858;4.384;2023-11-22T12:38:35;26.52;;;15.20;;
22634;SDS011;11484;50.858;4.384;2023-11-22T12:41:02;25.98;;;16.30;;
22634;SDS011;11484;50.858;4.384;2023-11-22T12:43:28;26.48;;;14.98;;
22634;SDS011;11484;50.858;4.384;2023-11-22T12:46:14;21.90;;;14.25;;
22634;SDS011;11484;50.858;4.384;2023-11-22T12:48:41;21.75;;;15.30;;
22634;SDS011;11484;50.858;4.384;2023-11-22T12:51:17;22.70;;;15.48;;
22634;SDS011;11484;50.858;4.384;2023-11-22T12:53:51;20.15;;;13.73;;
22634;SDS011;11484;50.858;4.384;2023-11-22T12:56:17;21.17;;;14.18;;
22634;SDS011;11484;50.858;4.384;2023-11-22T12:58:43;20.95;;;13.75;;
22634;SDS011;11484;50.858;4.384;2023-11-22T13:01:08;23.65;;;13.07;;
22634;SDS011;11484;50.858;4.384;2023-11-22T13:03:34;23.20;;;14.60;;
22634;SDS011;11484;50.858;4.384;2023-11-22T13:05:59;19.63;;;13.88;;
22634;SDS011;11484;50.858;4.384;2023-11-22T13:08:25;21.20;;;12.80;;
22634;SDS011;11484;50.858;4.384;2023-11-22T13:10:54;21.55;;;13.13;;
22634;SDS011;11484;50.858;4.384;2023-11-22T13:13:22;21.80;;;13.57;;
22634;SDS011;11484;50.858;4.384;2023-11-22T13:15:49;25.13;;;13.10;;
22634;SDS011;11484;50.858;4.384;2023-11-22T13:18:15;24.23;;;13.65;;
22634;SDS011;11484;50.858;4.384;2023-11-22T13:20:41;22.17;;;13.48;;
22634;SDS011;11484;50.858;4.384;2023-11-22T13:23:08;21.40;;;12.75;;
22634;SDS011;11484;50.858;4.384;2023-11-22T13:25:34;20.30;;;13.30;;
22634;SDS011;11484;50.858;4.384;2023-11-22T13:28:00;24.33;;;14.27;;
22634;SDS011;11484;50.858;4.384;2023-11-22T13:30:26;22.27;;;14.20;;
22634;SDS011;11484;50.858;4.384;2023-11-22T13:32:52;23.50;;;14.30;;
22634;SDS011;11484;50.858;4.384;2023-11-22T13:35:21;22.77;;;13.95;;
22634;SDS011;11484;50.858;4.384;2023-11-22T13:37:47;29.50;;;15.15;;
22634;SDS011;11484;50.858;4.384;2023-11-22T13:40:14;25.13;;;14.70;;
22634;SDS011;11484;50.858;4.384;2023-11-22T13:42:45;21.88;;;13.55;;
22634;SDS011;11484;50.858;4.384;2023-11-22T13:45:12;22.65;;;13.35;;
22634;SDS011;11484;50.858;4.384;2023-11-22T13:50:10;21.00;;;12.82;;
22634;SDS011;11484;50.858;4.384;2023-11-22T13:52:38;24.80;;;14.23;;
22634;SDS011;11484;50.858;4.384;2023-11-22T13:55:04;21.77;;;13.50;;
22634;SDS011;11484;50.858;4.384;2023-11-22T13:57:35;21.83;;;14.05;;
22634;SDS011;11484;50.858;4.384;2023-11-22T14:00:02;25.13;;;13.82;;
22634;SDS011;11484;50.858;4.384;2023-11-22T14:02:34;23.70;;;14.23;;
22634;SDS011;11484;50.858;4.384;2023-11-22T14:05:00;25.73;;;15.18;;
22634;SDS011;11484;50.858;4.384;2023-11-22T14:07:26;23.38;;;14.23;;
22634;SDS011;11484;50.858;4.384;2023-11-22T14:09:52;25.90;;;16.27;;
22634;SDS011;11484;50.858;4.384;2023-11-22T14:12:18;17.35;;;9.07;;
22634;SDS011;11484;50.858;4.384;2023-11-22T14:14:44;24.65;;;14.45;;
22634;SDS011;11484;50.858;4.384;2023-11-22T14:17:10;27.90;;;16.85;;
22634;SDS011;11484;50.858;4.384;2023-11-22T14:19:36;19.30;;;13.45;;
22634;SDS011;11484;50.858;4.384;2023-11-22T14:22:01;21.52;;;13.68;;
22634;SDS011;11484;50.858;4.384;2023-11-22T14:24:28;20.85;;;12.98;;
22634;SDS011;11484;50.858;4.384;2023-11-22T14:26:55;20.73;;;12.95;;
22634;SDS011;11484;50.858;4.384;2023-11-22T14:29:25;19.38;;;13.35;;
22634;SDS011;11484;50.858;4.384;2023-11-22T14:31:50;22.80;;;13.85;;